Time;durP1;ratioP1;P1;durP2;ratioP2;P2;SDS_P1;SDS_P2;PMS_P1;PMS_P2;Temp;Humidity;BMP_temperature;BMP_pressure;BME280_temperature;BME280_humidity;BME280_pressure;Samples;Min_cycle;Max_cycle;Signal;HPM_P1;HPM_P2
2021/11/27 00:00:24;;;;;;;0.20;0.20;;;;;;;5.88;100.00;96706.78;5109676;28;20070;-55
2021/11/27 00:03:28;;;;;;;0.10;0.10;;;;;;;5.83;100.00;96715.84;5094922;28;20047;-54
2021/11/27 00:06:32;;;;;;;0.22;0.22;;;;;;;5.82;100.00;96719.88;5109742;28;20035;-55
2021/11/27 00:09:35;;;;;;;0.20;0.20;;;;;;;5.80;100.00;96750.03;5096072;28;20093;-54
2021/11/27 00:12:39;;;;;;;0.57;0.57;;;;;;;5.79;100.00;96742.25;5110168;28;20070;-53
2021/11/27 00:15:43;;;;;;;0.10;0.10;;;;;;;5.77;100.00;96762.09;5095969;28;20065;-54
2021/11/27 00:18:46;;;;;;;0.17;0.17;;;;;;;5.79;100.00;96754.03;5109525;28;20043;-53
2021/11/27 00:21:49;;;;;;;0.50;0.50;;;;;;;5.81;100.00;96770.81;5096480;28;20035;-54
2021/11/27 00:24:52;;;;;;;0.30;0.30;;;;;;;5.75;100.00;96770.16;5109459;28;20457;-53
2021/11/27 00:27:55;;;;;;;0.30;0.30;;;;;;;5.72;100.00;96776.69;5097226;28;20035;-52
2021/11/27 00:31:02;;;;;;;0.50;0.40;;;;;;;5.75;100.00;96777.69;5091892;28;20059;-53
2021/11/27 00:34:05;;;;;;;0.30;0.30;;;;;;;5.74;100.00;96785.19;5089257;28;20043;-53
2021/11/27 00:37:08;;;;;;;0.28;0.28;;;;;;;5.75;100.00;96785.97;5088698;28;20051;-53
2021/11/27 00:40:12;;;;;;;0.45;0.40;;;;;;;5.77;100.00;96788.94;5075741;28;20047;-53
2021/11/27 00:43:15;;;;;;;0.40;0.40;;;;;;;5.74;100.00;96814.84;5075573;28;20090;-53
2021/11/27 00:46:18;;;;;;;0.60;0.60;;;;;;;5.74;100.00;96817.59;5075543;28;20051;-54
2021/11/27 00:49:22;;;;;;;0.30;0.30;;;;;;;5.71;100.00;96815.88;5074793;28;20400;-52
2021/11/27 00:52:25;;;;;;;0.40;0.40;;;;;;;5.66;100.00;96838.75;5075306;28;20054;-53
2021/11/27 00:55:30;;;;;;;0.32;0.32;;;;;;;5.59;100.00;96823.50;5074783;28;20098;-53
2021/11/27 00:58:34;;;;;;;0.30;0.30;;;;;;;5.61;100.00;96862.38;5082304;28;20043;-54
2021/11/27 01:01:37;;;;;;;0.20;0.20;;;;;;;5.64;100.00;96869.63;5090430;28;20040;-54
2021/11/27 01:04:41;;;;;;;0.17;0.17;;;;;;;5.65;100.00;96871.13;5075402;28;20545;-54
2021/11/27 01:07:44;;;;;;;0.35;0.35;;;;;;;5.71;100.00;96880.13;5075246;28;20043;-54
2021/11/27 01:10:52;;;;;;;0.22;0.22;;;;;;;5.69;100.00;96896.44;5074842;28;20047;-53
2021/11/27 01:14:00;;;;;;;0.77;0.43;;;;;;;5.67;100.00;96907.25;5074511;28;20082;-53
2021/11/27 01:17:06;;;;;;;1.02;0.47;;;;;;;5.69;100.00;96920.53;5074632;28;20048;-53
2021/11/27 01:20:12;;;;;;;0.55;0.55;;;;;;;5.67;100.00;96934.13;5074823;28;20048;-53
2021/11/27 01:23:15;;;;;;;0.30;0.30;;;;;;;5.71;100.00;96938.09;5075008;28;20039;-53
2021/11/27 01:26:18;;;;;;;0.20;0.20;;;;;;;5.71;100.00;96940.84;5074825;28;20119;-54
2021/11/27 01:29:22;;;;;;;0.50;0.50;;;;;;;5.61;100.00;96958.97;5075004;28;20098;-54
2021/11/27 01:32:25;;;;;;;0.30;0.30;;;;;;;5.54;100.00;96981.63;5074885;28;20052;-53
2021/11/27 01:35:28;;;;;;;0.73;0.73;;;;;;;5.62;100.00;96982.56;5074482;28;20048;-55
2021/11/27 01:38:31;;;;;;;0.35;0.35;;;;;;;5.61;100.00;96997.63;5074445;28;20066;-55
2021/11/27 01:41:39;;;;;;;0.40;0.40;;;;;;;5.61;100.00;97022.47;5074410;28;20047;-55
2021/11/27 01:44:43;;;;;;;0.50;0.50;;;;;;;5.61;100.00;97025.22;5074560;28;20047;-56
2021/11/27 01:48:08;;;;;;;1.00;0.25;;;;;;;5.48;100.00;97022.28;5074103;28;20086;-53
2021/11/27 01:51:16;;;;;;;0.20;0.20;;;;;;;5.35;100.00;97024.88;5073212;28;20136;-53
2021/11/27 01:54:19;;;;;;;0.30;0.30;;;;;;;5.26;100.00;97034.19;5074789;28;20101;-52
2021/11/27 01:57:22;;;;;;;0.40;0.40;;;;;;;5.11;100.00;97055.09;5073885;28;20082;-52
2021/11/27 02:00:29;;;;;;;0.30;0.30;;;;;;;5.06;100.00;97064.88;5073685;28;20043;-52
2021/11/27 02:03:32;;;;;;;3.00;0.60;;;;;;;5.04;100.00;97061.13;5073621;28;20048;-52
2021/11/27 02:06:37;;;;;;;0.52;0.52;;;;;;;5.13;100.00;97058.09;5073729;28;20089;-52
2021/11/27 02:09:41;;;;;;;0.50;0.50;;;;;;;5.17;100.00;97061.31;5073803;28;20035;-53
2021/11/27 02:12:44;;;;;;;0.17;0.17;;;;;;;5.22;100.00;97077.09;5073694;28;20549;-55
2021/11/27 02:15:47;;;;;;;0.30;0.30;;;;;;;5.31;100.00;97091.38;5073418;28;20039;-55
2021/11/27 02:18:51;;;;;;;0.30;0.30;;;;;;;5.37;100.00;97121.72;5073940;28;20408;-55
2021/11/27 02:21:54;;;;;;;0.10;0.10;;;;;;;5.42;100.00;97112.66;5073418;28;20496;-53
2021/11/27 02:24:58;;;;;;;0.20;0.20;;;;;;;5.32;100.00;97137.03;5061595;28;20523;-52
2021/11/27 02:28:01;;;;;;;0.20;0.20;;;;;;;5.22;100.00;97124.75;5073519;28;20522;-53
2021/11/27 02:31:05;;;;;;;0.15;0.15;;;;;;;5.08;100.00;97119.53;5073450;28;20071;-54
2021/11/27 02:34:08;;;;;;;0.30;0.30;;;;;;;4.93;100.00;97144.63;5073133;28;20081;-56
2021/11/27 02:37:11;;;;;;;0.30;0.30;;;;;;;4.72;100.00;97145.41;5073461;28;20059;-56
2021/11/27 02:40:14;;;;;;;0.40;0.40;;;;;;;4.60;100.00;97156.41;5073466;28;20732;-56
2021/11/27 02:43:18;;;;;;;0.43;0.43;;;;;;;4.43;100.00;97125.34;5073230;28;20116;-57
2021/11/27 02:46:21;;;;;;;0.20;0.20;;;;;;;4.31;100.00;97156.88;5073327;28;20086;-57
2021/11/27 02:49:24;;;;;;;0.40;0.40;;;;;;;4.25;100.00;97163.63;5073356;28;20046;-56
2021/11/27 02:52:29;;;;;;;0.30;0.30;;;;;;;4.22;100.00;97164.66;5073344;28;20097;-57
2021/11/27 02:55:32;;;;;;;0.28;0.28;;;;;;;4.19;100.00;97177.41;5073163;28;20093;-59
2021/11/27 02:58:36;;;;;;;0.43;0.43;;;;;;;4.17;100.00;97166.13;5072888;28;20159;-59
2021/11/27 03:01:40;;;;;;;0.45;0.45;;;;;;;4.15;100.00;97192.66;5072621;28;20093;-59
2021/11/27 03:04:43;;;;;;;0.30;0.30;;;;;;;4.20;100.00;97197.44;5072794;28;20525;-61
2021/11/27 03:07:48;;;;;;;0.20;0.20;;;;;;;4.24;100.00;97206.97;5072789;28;20503;-61
2021/11/27 03:10:51;;;;;;;0.50;0.50;;;;;;;4.28;100.00;97213.00;5072753;28;20058;-60
2021/11/27 03:13:54;;;;;;;0.30;0.30;;;;;;;4.32;100.00;97219.00;5072743;28;20038;-59
2021/11/27 03:16:58;;;;;;;0.55;0.55;;;;;;;4.31;100.00;97228.50;5072839;28;20059;-60
2021/11/27 03:20:02;;;;;;;0.40;0.40;;;;;;;4.30;100.00;97246.28;5088639;28;20132;-60
2021/11/27 03:23:06;;;;;;;0.40;0.40;;;;;;;4.25;100.00;97252.53;5084607;28;20170;-60
2021/11/27 03:26:09;;;;;;;0.20;0.20;;;;;;;4.30;100.00;97264.81;5072795;28;20575;-61
2021/11/27 03:29:12;;;;;;;0.30;0.30;;;;;;;4.33;100.00;97267.31;5072572;28;20499;-59
2021/11/27 03:32:17;;;;;;;4.70;0.73;;;;;;;4.37;100.00;97284.41;5072574;28;20051;-58
2021/11/27 03:35:20;;;;;;;0.22;0.22;;;;;;;4.34;100.00;97310.16;5072913;28;20048;-58
2021/11/27 03:38:24;;;;;;;0.43;0.43;;;;;;;4.38;100.00;97298.91;5072265;28;20395;-59
2021/11/27 03:41:27;;;;;;;0.20;0.20;;;;;;;4.43;100.00;97298.94;5072701;28;20047;-59
2021/11/27 03:44:29;;;;;;;0.35;0.35;;;;;;;4.43;100.00;97318.22;5074426;28;20048;-60
2021/11/27 03:47:33;;;;;;;0.25;0.25;;;;;;;4.52;100.00;97320.00;5081736;28;20102;-61
2021/11/27 04:03:08;;;;;;;0.40;0.40;;;;;;;4.63;100.00;97374.41;5163421;27;20691;-54
2021/11/27 04:06:12;;;;;;;0.30;0.30;;;;;;;4.61;100.00;97416.97;5148814;27;20045;-57
2021/11/27 04:09:15;;;;;;;0.25;0.25;;;;;;;4.63;100.00;97414.47;5144273;27;20076;-54
2021/11/27 04:12:19;;;;;;;0.20;0.20;;;;;;;4.59;100.00;97449.06;5128592;27;20042;-53
2021/11/27 04:15:22;;;;;;;0.43;0.43;;;;;;;4.57;100.00;97460.56;5128454;27;20061;-52
2021/11/27 04:18:25;;;;;;;0.20;0.20;;;;;;;4.53;100.00;97451.03;5134899;27;20515;-52
2021/11/27 04:21:28;;;;;;;0.10;0.10;;;;;;;4.53;100.00;97459.28;5131835;27;20045;-51
2021/11/27 04:24:31;;;;;;;0.40;0.40;;;;;;;4.51;100.00;97479.06;5136053;27;20133;-53
2021/11/27 04:27:35;;;;;;;0.20;0.20;;;;;;;4.50;100.00;97494.09;5148857;27;20088;-53
2021/11/27 04:30:39;;;;;;;0.20;0.20;;;;;;;4.44;100.00;97523.63;5136720;27;20439;-53
2021/11/27 04:33:42;;;;;;;0.30;0.30;;;;;;;4.38;100.00;97514.56;5148408;27;20162;-54
2021/11/27 04:51:03;;;;;;;0.28;0.28;;;;;;;4.24;100.00;97598.13;5140119;27;20371;-57
2021/11/27 04:54:06;;;;;;;0.17;0.17;;;;;;;4.24;100.00;97613.88;5130769;28;20064;-56
2021/11/27 04:57:09;;;;;;;0.35;0.35;;;;;;;4.21;100.00;97621.13;5131069;28;20084;-56
2021/11/27 05:00:26;;;;;;;0.30;0.30;;;;;;;4.22;100.00;97628.13;5130708;28;20118;-57
2021/11/27 05:03:29;;;;;;;0.73;0.73;;;;;;;4.20;100.00;97619.59;5131245;28;20078;-57
2021/11/27 05:06:32;;;;;;;0.30;0.30;;;;;;;4.17;100.00;97631.59;5110388;28;20119;-57
2021/11/27 05:09:34;;;;;;;0.20;0.20;;;;;;;4.15;100.00;97627.81;5125255;28;20399;-57
2021/11/27 05:12:37;;;;;;;0.57;0.57;;;;;;;4.12;100.00;97640.56;5116888;28;20101;-59
2021/11/27 05:15:41;;;;;;;0.52;0.52;;;;;;;4.11;100.00;97660.34;5130377;28;20046;-58
2021/11/27 05:18:44;;;;;;;0.30;0.30;;;;;;;4.09;100.00;97674.59;5117175;28;20030;-59
2021/11/27 05:21:46;;;;;;;0.30;0.30;;;;;;;4.05;100.00;97684.31;5129889;28;20046;-59
2021/11/27 05:24:49;;;;;;;1.20;0.68;;;;;;;4.05;100.00;97676.03;5117270;28;20096;-60
2021/11/27 05:27:53;;;;;;;0.60;0.60;;;;;;;4.03;100.00;97687.53;5129969;28;20051;-59
2021/11/27 05:30:56;;;;;;;0.22;0.22;;;;;;;4.00;100.00;97696.78;5113236;28;20673;-59
2021/11/27 05:37:06;;;;;;;0.20;0.20;;;;;;;4.02;100.00;97705.31;5104605;28;20170;-60
2021/11/27 05:40:10;;;;;;;1.20;1.10;;;;;;;4.11;100.00;97704.41;5112429;28;20051;-58
2021/11/27 05:43:14;;;;;;;11.05;1.05;;;;;;;4.14;100.00;97704.19;5094622;28;20077;-58
2021/11/27 05:46:17;;;;;;;1.50;1.40;;;;;;;4.17;100.00;97703.22;5093530;28;20169;-58
2021/11/27 05:49:20;;;;;;;0.73;0.73;;;;;;;4.18;100.00;97701.97;5093485;28;20031;-58
2021/11/27 05:52:23;;;;;;;12.23;0.85;;;;;;;4.16;100.00;97720.97;5080760;28;20097;-58
2021/11/27 05:55:25;;;;;;;0.45;0.45;;;;;;;4.22;100.00;97732.81;5080600;28;20127;-58
2021/11/27 05:58:28;;;;;;;0.70;0.70;;;;;;;4.26;100.00;97733.38;5080349;28;20043;-58
2021/11/27 06:01:32;;;;;;;0.70;0.70;;;;;;;4.33;100.00;97727.41;5082950;28;20915;-57
2021/11/27 06:04:35;;;;;;;1.02;0.73;;;;;;;4.39;100.00;97724.72;5078843;28;20035;-57
2021/11/27 06:07:38;;;;;;;0.55;0.55;;;;;;;4.35;100.00;97724.94;5076515;28;20043;-57
2021/11/27 06:10:41;;;;;;;0.57;0.57;;;;;;;4.43;100.00;97737.06;5077686;28;20117;-56
2021/11/27 06:13:44;;;;;;;0.35;0.35;;;;;;;4.48;100.00;97750.13;5077330;28;20101;-56
2021/11/27 06:16:47;;;;;;;9.32;1.05;;;;;;;4.52;100.00;97750.69;5078321;28;20031;-55
2021/11/27 06:19:50;;;;;;;0.13;0.13;;;;;;;4.51;100.00;97768.44;5080289;28;20577;-55
2021/11/27 06:22:53;;;;;;;0.63;0.63;;;;;;;4.58;100.00;97781.81;5080557;28;20043;-54
2021/11/27 06:25:56;;;;;;;2.30;0.75;;;;;;;4.62;100.00;97789.84;5077860;28;20400;-55
2021/11/27 06:28:58;;;;;;;0.35;0.35;;;;;;;4.63;100.00;97799.66;5077637;28;20160;-54
2021/11/27 06:32:08;;;;;;;0.30;0.30;;;;;;;4.64;100.00;97806.66;5078502;28;20035;-53
2021/11/27 06:35:11;;;;;;;0.40;0.40;;;;;;;4.57;100.00;97823.63;5081481;28;20074;-54
2021/11/27 06:38:15;;;;;;;0.57;0.57;;;;;;;4.45;100.00;97831.03;5079589;28;20039;-54
2021/11/27 06:41:18;;;;;;;0.50;0.50;;;;;;;4.36;100.00;97853.19;5080980;28;20039;-52
2021/11/27 06:44:21;;;;;;;0.98;0.60;;;;;;;4.21;100.00;97874.53;5092972;28;20084;-53
2021/11/27 06:47:25;;;;;;;0.30;0.30;;;;;;;4.18;100.00;97870.00;5095084;28;20115;-52
2021/11/27 06:50:29;;;;;;;0.80;0.30;;;;;;;4.24;100.00;97900.38;5095475;28;20076;-52
2021/11/27 06:53:32;;;;;;;5.68;0.55;;;;;;;4.27;100.00;97921.44;5088667;28;20051;-52
2021/11/27 06:56:34;;;;;;;0.32;0.32;;;;;;;4.29;100.00;97913.47;5094996;28;20144;-53
2021/11/27 06:59:39;;;;;;;0.55;0.55;;;;;;;4.25;100.00;97918.41;5111884;28;20117;-53
2021/11/27 07:02:42;;;;;;;2.60;0.98;;;;;;;4.21;100.00;97929.66;5110979;28;20096;-53
2021/11/27 07:05:44;;;;;;;0.77;0.40;;;;;;;4.21;100.00;97929.66;5113331;28;20082;-54
2021/11/27 07:54:46;;;;;;;0.65;0.50;;;;;;;4.61;100.00;98026.16;6233900;22;1301661;-51
2021/11/27 07:57:49;;;;;;;0.40;0.40;;;;;;;4.70;100.00;98049.34;6252836;23;20039;-51
2021/11/27 08:00:52;;;;;;;1.40;0.70;;;;;;;4.79;100.00;98049.19;6253845;23;20119;-52
2021/11/27 08:03:55;;;;;;;0.13;0.13;;;;;;;4.89;100.00;98043.09;6254586;23;20071;-53
2021/11/27 08:06:58;;;;;;;1.75;0.20;;;;;;;4.92;100.00;98058.69;6253689;23;20066;-53
2021/11/27 08:10:04;;;;;;;1.20;0.45;;;;;;;4.90;100.00;98063.91;6254721;23;20153;-54
2021/11/27 08:13:07;;;;;;;4.75;2.15;;;;;;;4.93;100.00;98071.25;6254763;23;20341;-54
2021/11/27 08:16:10;;;;;;;0.38;0.38;;;;;;;5.02;100.00;98097.94;6254337;23;20106;-54
2021/11/27 08:19:12;;;;;;;0.28;0.28;;;;;;;5.04;100.00;98103.72;6254937;23;20026;-55
2021/11/27 08:22:15;;;;;;;0.15;0.15;;;;;;;4.99;100.00;98118.97;6254161;23;20069;-53
2021/11/27 08:25:19;;;;;;;0.70;0.55;;;;;;;5.06;100.00;98106.75;6254642;23;20023;-55
2021/11/27 08:28:22;;;;;;;4.95;0.93;;;;;;;5.09;100.00;98112.06;6253176;23;20518;-54
2021/11/27 08:31:25;;;;;;;0.43;0.43;;;;;;;5.11;100.00;98104.06;6254370;23;20382;-55
2021/11/27 08:34:28;;;;;;;0.20;0.20;;;;;;;5.16;100.00;98127.47;6254364;23;20375;-54
2021/11/27 08:37:31;;;;;;;0.35;0.35;;;;;;;5.21;100.00;98119.28;6254361;23;20023;-55
2021/11/27 08:40:34;;;;;;;0.30;0.30;;;;;;;5.16;100.00;98146.78;6253276;23;20069;-55
2021/11/27 08:43:38;;;;;;;0.80;0.77;;;;;;;5.07;100.00;98157.94;6251502;23;20150;-55
2021/11/27 08:46:41;;;;;;;1.20;1.00;;;;;;;5.08;100.00;98153.94;6250707;23;20070;-55
2021/11/27 08:49:45;;;;;;;0.63;0.63;;;;;;;5.20;100.00;98177.69;6232865;23;20084;-56
2021/11/27 08:52:48;;;;;;;1.90;1.05;;;;;;;5.27;100.00;98188.31;6250395;23;20026;-56
2021/11/27 08:55:51;;;;;;;0.20;0.20;;;;;;;5.23;100.00;98182.25;6245908;23;20023;-57
2021/11/27 08:58:54;;;;;;;0.90;0.68;;;;;;;5.21;100.00;98195.78;6246221;23;20027;-57
2021/11/27 09:01:58;;;;;;;0.70;0.70;;;;;;;5.22;100.00;98200.03;6228409;23;20467;-57
2021/11/27 09:05:01;;;;;;;0.22;0.22;;;;;;;5.25;100.00;98186.06;6246639;23;20066;-58
2021/11/27 09:08:05;;;;;;;0.32;0.32;;;;;;;5.26;100.00;98214.41;6246876;23;20070;-58
2021/11/27 09:11:09;;;;;;;0.75;0.75;;;;;;;5.32;100.00;98212.50;6246875;23;20022;-57
2021/11/27 09:14:12;;;;;;;0.32;0.32;;;;;;;5.37;100.00;98214.59;6245909;23;20023;-58
2021/11/27 09:17:15;;;;;;;0.30;0.30;;;;;;;5.48;100.00;98233.31;6226783;23;20341;-57
2021/11/27 09:20:18;;;;;;;1.10;0.88;;;;;;;5.59;100.00;98247.28;6246411;23;20113;-60
2021/11/27 09:23:22;;;;;;;5.35;0.55;;;;;;;5.65;100.00;98243.31;6245003;23;20471;-59
2021/11/27 09:26:25;;;;;;;0.95;0.75;;;;;;;5.75;100.00;98257.78;6245940;23;20070;-59
2021/11/27 09:29:27;;;;;;;0.60;0.60;;;;;;;5.86;100.00;98258.72;6245449;23;20027;-60
2021/11/27 09:32:31;;;;;;;0.45;0.45;;;;;;;5.93;100.00;98269.34;6245545;23;20065;-64
2021/11/27 09:50:24;;;;;;;0.30;0.30;;;;;;;5.78;100.00;98295.47;6235342;22;1289489;-58
2021/11/27 09:53:27;;;;;;;0.57;0.57;;;;;;;5.78;100.00;98310.03;6253578;23;20071;-58
2021/11/27 09:56:31;;;;;;;0.63;0.63;;;;;;;5.92;100.00;98333.38;6253619;23;20031;-57
2021/11/27 09:59:35;;;;;;;0.40;0.40;;;;;;;6.23;100.00;98322.50;6234749;23;20059;-58
2021/11/27 10:02:40;;;;;;;0.22;0.22;;;;;;;6.30;100.00;98335.16;6253510;23;20023;-58
2021/11/27 10:05:46;;;;;;;0.65;0.65;;;;;;;6.29;100.00;98339.91;6253218;23;20101;-58
2021/11/27 10:08:50;;;;;;;3.80;1.20;;;;;;;6.37;100.00;98352.06;6253004;23;20069;-58
2021/11/27 10:11:53;;;;;;;0.10;0.10;;;;;;;6.35;100.00;98354.56;6253296;23;20054;-57
2021/11/27 10:14:56;;;;;;;1.85;0.60;;;;;;;6.44;100.00;98364.72;6253240;23;20343;-60
2021/11/27 10:18:21;;;;;;;0.50;0.50;;;;;;;6.63;100.00;98363.19;6253460;23;20031;-62
2021/11/27 10:21:24;;;;;;;0.38;0.38;;;;;;;6.47;100.00;98374.81;6253628;23;20023;-60
2021/11/27 10:24:30;;;;;;;0.47;0.47;;;;;;;6.34;100.00;98377.16;6253130;23;20077;-61
2021/11/27 10:27:33;;;;;;;0.10;0.10;;;;;;;6.15;100.00;98400.78;6253156;23;20023;-59
2021/11/27 10:30:51;;;;;;;0.25;0.25;;;;;;;6.06;100.00;98391.34;6252985;23;20336;-61
2021/11/27 10:34:00;;;;;;;0.38;0.38;;;;;;;5.98;100.00;98423.38;6253512;23;20070;-59
2021/11/27 10:37:26;;;;;;;7.93;0.77;;;;;;;5.91;100.00;98434.81;6253392;23;20038;-58
2021/11/27 10:40:30;;;;;;;1.75;0.88;;;;;;;5.86;100.00;98418.94;6252691;23;20055;-58
2021/11/27 10:43:34;;;;;;;1.13;1.13;;;;;;;5.96;100.00;98430.63;6253774;23;20023;-57
2021/11/27 10:46:38;;;;;;;14.35;0.75;;;;;;;6.02;100.00;98439.78;6252333;23;20023;-58
2021/11/27 10:49:44;;;;;;;0.20;0.20;;;;;;;6.15;100.00;98440.22;6249753;23;20051;-57
2021/11/27 10:52:49;;;;;;;0.20;0.20;;;;;;;6.26;100.00;98447.94;6246341;23;20471;-57
2021/11/27 10:55:53;;;;;;;0.40;0.40;;;;;;;6.29;100.00;98452.47;6245589;23;20077;-57
2021/11/27 10:59:00;;;;;;;14.30;1.17;;;;;;;6.36;100.00;98461.16;6244989;23;20121;-57
2021/11/27 11:02:10;;;;;;;2.65;0.63;;;;;;;6.33;100.00;98475.16;6245833;23;20022;-57
2021/11/27 11:05:14;;;;;;;0.43;0.30;;;;;;;6.43;100.00;98484.88;6246102;23;20027;-57
2021/11/27 11:08:31;;;;;;;0.85;0.85;;;;;;;6.43;100.00;98482.09;6246670;23;20034;-57
2021/11/27 11:11:35;;;;;;;0.30;0.30;;;;;;;6.52;100.00;98487.53;6246616;23;20051;-57
2021/11/27 11:14:40;;;;;;;0.45;0.45;;;;;;;6.54;100.00;98490.56;6246802;23;20059;-57
2021/11/27 11:17:45;;;;;;;0.80;0.75;;;;;;;6.52;100.00;98490.28;6246267;23;20459;-56
2021/11/27 11:20:53;;;;;;;0.60;0.40;;;;;;;6.46;100.00;98512.31;6245997;23;20372;-56
2021/11/27 11:23:55;;;;;;;9.38;0.85;;;;;;;6.42;100.00;98516.50;6246105;23;20027;-56
2021/11/27 11:27:00;;;;;;;0.30;0.30;;;;;;;6.37;100.00;98508.88;6245974;23;20089;-55
2021/11/27 11:30:05;;;;;;;0.22;0.22;;;;;;;6.33;100.00;98513.84;6245457;23;20567;-56
2021/11/27 11:33:08;;;;;;;0.40;0.40;;;;;;;6.35;100.00;98523.19;6246064;23;20023;-56
2021/11/27 11:36:13;;;;;;;10.05;1.02;;;;;;;6.32;100.00;98517.88;6246075;23;20023;-56
2021/11/27 11:39:16;;;;;;;0.95;0.90;;;;;;;6.31;100.00;98513.56;6246539;23;20070;-56
2021/11/27 11:42:21;;;;;;;0.73;0.68;;;;;;;6.30;100.00;98514.84;6227742;23;20031;-56
2021/11/27 11:45:24;;;;;;;0.22;0.22;;;;;;;6.29;100.00;98508.53;6246633;23;20027;-56
2021/11/27 11:48:28;;;;;;;0.32;0.32;;;;;;;6.27;100.00;98518.53;6227394;23;20023;-56
2021/11/27 11:51:47;;;;;;;0.40;0.40;;;;;;;6.20;100.00;98527.22;6246532;23;20025;-56
2021/11/27 11:54:59;;;;;;;0.20;0.20;;;;;;;6.19;100.00;98525.72;6246344;23;20038;-56
2021/11/27 11:58:02;;;;;;;0.30;0.30;;;;;;;6.22;100.00;98544.09;6227595;23;20074;-56
2021/11/27 12:01:20;;;;;;;0.50;0.50;;;;;;;6.27;100.00;98546.97;6246249;23;20075;-56
2021/11/27 12:04:23;;;;;;;6.80;1.25;;;;;;;6.34;100.00;98570.69;6246167;23;20023;-57
2021/11/27 12:07:44;;;;;;;2.38;1.60;;;;;;;6.45;100.00;98548.75;6245932;23;20031;-57
2021/11/27 12:10:47;;;;;;;0.60;0.60;;;;;;;6.43;100.00;98542.94;6245951;23;20495;-57
2021/11/27 12:13:50;;;;;;;0.32;0.32;;;;;;;6.40;100.00;98546.66;6246247;23;20252;-57
2021/11/27 12:17:03;;;;;;;1.10;0.82;;;;;;;6.33;100.00;98541.50;6246147;23;20095;-57
2021/11/27 12:20:07;;;;;;;0.20;0.20;;;;;;;6.24;100.00;98555.44;6246463;23;20070;-56
2021/11/27 12:23:25;;;;;;;3.58;0.82;;;;;;;6.25;100.00;98556.97;6245462;23;20364;-56
2021/11/27 12:26:28;;;;;;;0.45;0.43;;;;;;;6.19;100.00;98559.66;6245857;23;20075;-57
2021/11/27 12:29:31;;;;;;;0.40;0.40;;;;;;;6.13;100.00;98571.84;6245214;23;20030;-57
2021/11/27 12:32:40;;;;;;;0.40;0.40;;;;;;;6.09;100.00;98572.78;6243386;23;20038;-57
2021/11/27 12:35:43;;;;;;;0.40;0.40;;;;;;;6.09;100.00;98572.78;6244294;23;20468;-57
2021/11/27 12:38:53;;;;;;;0.20;0.20;;;;;;;6.05;100.00;98588.81;6245012;23;20079;-57
2021/11/27 12:42:06;;;;;;;1.00;1.00;;;;;;;6.05;100.00;98626.72;6245250;23;20027;-57
2021/11/27 12:45:10;;;;;;;0.30;0.30;;;;;;;6.02;100.00;98594.53;6245915;23;20026;-56
2021/11/27 12:48:40;;;;;;;0.68;0.40;;;;;;;5.98;100.00;98605.75;6242668;23;20023;-56
2021/11/27 12:51:43;;;;;;;0.32;0.32;;;;;;;5.98;100.00;98589.16;6245399;23;20030;-55
2021/11/27 12:54:52;;;;;;;8.80;1.75;;;;;;;6.03;100.00;98594.03;6244146;23;20023;-56
2021/11/27 12:57:55;;;;;;;0.52;0.52;;;;;;;6.07;100.00;98602.91;6245097;23;20066;-55
2021/11/27 13:00:58;;;;;;;0.25;0.25;;;;;;;6.22;100.00;98607.66;6245515;23;20027;-55
2021/11/27 13:04:01;;;;;;;10.32;0.75;;;;;;;6.24;100.00;98594.16;6226480;23;20054;-55
2021/11/27 13:07:06;;;;;;;0.30;0.30;;;;;;;6.20;100.00;98618.44;6245506;23;20392;-55
2021/11/27 13:10:10;;;;;;;0.25;0.22;;;;;;;6.21;100.00;98584.03;6244610;23;20019;-55
2021/11/27 13:13:20;;;;;;;0.57;0.57;;;;;;;6.21;100.00;98600.63;6243903;23;20478;-55
2021/11/27 13:16:25;;;;;;;0.85;0.82;;;;;;;6.19;100.00;98583.75;6244462;23;20023;-55
2021/11/27 13:19:30;;;;;;;0.35;0.35;;;;;;;6.07;100.00;98558.69;6244731;23;20139;-55
2021/11/27 13:22:33;;;;;;;0.52;0.50;;;;;;;5.91;100.00;98564.66;6244614;23;20070;-55
2021/11/27 13:25:41;;;;;;;0.60;0.60;;;;;;;6.07;100.00;98589.09;6244549;23;20077;-55
2021/11/27 13:28:49;;;;;;;1.58;0.52;;;;;;;6.01;100.00;98588.22;6245002;23;20019;-56
2021/11/27 13:31:52;;;;;;;8.27;1.42;;;;;;;6.09;100.00;98600.44;6244841;23;20090;-56
2021/11/27 13:34:55;;;;;;;0.43;0.43;;;;;;;6.09;100.00;98589.38;6244766;23;20039;-55
2021/11/27 13:37:58;;;;;;;1.38;1.08;;;;;;;6.10;100.00;98579.09;6244791;23;20023;-57
2021/11/27 13:41:00;;;;;;;0.55;0.55;;;;;;;6.06;100.00;98598.59;6245347;23;20062;-55
2021/11/27 13:44:03;;;;;;;0.40;0.40;;;;;;;6.04;100.00;98603.09;6244772;23;20027;-56
2021/11/27 13:47:12;;;;;;;1.60;0.40;;;;;;;6.05;100.00;98605.38;6244031;23;20119;-56
2021/11/27 13:50:17;;;;;;;0.43;0.43;;;;;;;6.05;100.00;98610.13;6243418;23;20027;-55
2021/11/27 13:53:20;;;;;;;0.30;0.30;;;;;;;6.04;100.00;98620.41;6244815;23;20030;-56
2021/11/27 13:56:23;;;;;;;0.60;0.60;;;;;;;6.04;100.00;98631.47;6244971;23;20027;-56
2021/11/27 13:59:31;;;;;;;0.50;0.50;;;;;;;6.02;100.00;98625.66;6245124;23;20341;-56
2021/11/27 14:02:38;;;;;;;0.52;0.52;;;;;;;6.03;100.00;98618.16;6244600;23;20122;-58
2021/11/27 14:05:53;;;;;;;1.48;0.40;;;;;;;6.01;100.00;98631.69;6243932;23;20483;-57
2021/11/27 14:09:03;;;;;;;0.38;0.38;;;;;;;6.00;100.00;98639.19;6244562;23;20023;-58
2021/11/27 14:12:33;;;;;;;1.00;0.85;;;;;;;5.98;100.00;98627.09;6243829;23;20086;-57
2021/11/27 14:15:42;;;;;;;0.20;0.20;;;;;;;5.96;100.00;98641.38;6244830;23;20503;-56
2021/11/27 14:18:44;;;;;;;0.40;0.40;;;;;;;5.94;100.00;98651.38;6243652;23;20074;-58
2021/11/27 14:22:05;;;;;;;0.60;0.60;;;;;;;5.88;100.00;98645.75;6244940;23;20031;-57
2021/11/27 14:25:10;;;;;;;0.32;0.32;;;;;;;5.90;100.00;98659.84;6245599;23;20058;-57
2021/11/27 14:28:14;;;;;;;0.20;0.20;;;;;;;5.96;100.00;98677.31;6246851;23;20097;-56
2021/11/27 14:31:18;;;;;;;0.45;0.45;;;;;;;5.96;100.00;98680.06;6246888;23;20145;-56
2021/11/27 14:34:34;;;;;;;2.17;0.57;;;;;;;5.95;100.00;98695.13;6246701;23;20058;-57
2021/11/27 14:37:52;;;;;;;0.30;0.30;;;;;;;5.88;100.00;98694.72;6246702;23;20066;-57
2021/11/27 14:41:01;;;;;;;0.30;0.30;;;;;;;5.87;100.00;98705.00;6228316;23;20038;-56
2021/11/27 14:44:08;;;;;;;1.10;1.00;;;;;;;5.76;100.00;98701.97;6246820;23;20451;-57
2021/11/27 14:47:11;;;;;;;0.40;0.40;;;;;;;5.67;100.00;98684.72;6246598;23;20070;-57
2021/11/27 14:50:16;;;;;;;6.60;0.73;;;;;;;5.56;100.00;98695.53;6246522;23;20027;-57
2021/11/27 14:53:36;;;;;;;0.52;0.52;;;;;;;5.51;100.00;98704.44;6246404;23;20071;-58
2021/11/27 14:56:38;;;;;;;1.00;1.00;;;;;;;5.40;100.00;98693.91;6246441;23;20046;-58
2021/11/27 14:59:55;;;;;;;0.40;0.40;;;;;;;5.29;100.00;98690.91;6246315;23;20142;-58
2021/11/27 15:02:59;;;;;;;6.18;1.23;;;;;;;5.18;100.00;98691.44;6245851;23;20130;-58
2021/11/27 15:06:05;;;;;;;0.30;0.30;;;;;;;5.16;100.00;98706.91;6245978;23;20027;-59
2021/11/27 15:09:09;;;;;;;0.80;0.77;;;;;;;5.10;100.00;98697.75;6246498;23;20026;-58
2021/11/27 15:12:13;;;;;;;4.47;1.48;;;;;;;5.10;100.00;98708.78;6246358;23;20027;-59
2021/11/27 15:15:16;;;;;;;0.40;0.40;;;;;;;5.13;100.00;98680.28;6246153;23;20103;-58
2021/11/27 15:18:19;;;;;;;1.48;1.40;;;;;;;5.15;100.00;98686.09;6245902;23;20043;-58
2021/11/27 15:21:22;;;;;;;0.93;0.88;;;;;;;5.13;100.00;98683.03;6246273;23;20074;-59
2021/11/27 15:24:25;;;;;;;1.70;0.85;;;;;;;5.13;100.00;98688.56;6246298;23;20023;-58
2021/11/27 15:27:33;;;;;;;0.75;0.75;;;;;;;5.12;100.00;98689.78;6246473;23;20054;-59
2021/11/27 15:30:36;;;;;;;0.43;0.43;;;;;;;5.06;100.00;98703.44;6245930;23;20019;-59
2021/11/27 15:33:38;;;;;;;2.92;1.20;;;;;;;5.09;100.00;98697.00;6245895;23;20440;-59
2021/11/27 15:36:45;;;;;;;0.50;0.50;;;;;;;5.12;100.00;98717.38;6244879;23;20027;-59
2021/11/27 15:39:48;;;;;;;0.88;0.88;;;;;;;5.10;100.00;98737.16;6245806;23;20074;-59
2021/11/27 15:42:51;;;;;;;0.85;0.85;;;;;;;5.08;100.00;98733.34;6245716;23;20080;-59
2021/11/27 15:45:54;;;;;;;1.02;0.93;;;;;;;5.12;100.00;98717.38;6245909;23;20073;-59
2021/11/27 15:48:57;;;;;;;0.70;0.70;;;;;;;5.12;100.00;98736.69;6245215;23;20071;-59
2021/11/27 15:52:00;;;;;;;0.55;0.40;;;;;;;5.12;100.00;98739.44;6245408;23;20108;-59
2021/11/27 15:55:04;;;;;;;0.47;0.47;;;;;;;5.07;100.00;98746.34;6245350;23;20042;-59
2021/11/27 15:58:07;;;;;;;0.85;0.57;;;;;;;5.07;100.00;98753.84;6245518;23;20023;-59
2021/11/27 16:01:10;;;;;;;1.55;0.73;;;;;;;5.04;100.00;98769.38;6244732;23;20061;-58